sensor_id;sensor_type;location;lat;lon;timestamp;pressure;altitude;pressure_sealevel;temperature;humidity
7157;BME280;3620;49.862;8.758;2023-03-15T11:43:32;99422.66;;;15.00;55.34
7157;BME280;3620;49.862;8.758;2023-03-15T11:46:22;99421.63;;;15.73;53.13
7157;BME280;3620;49.862;8.758;2023-03-15T11:49:01;99425.72;;;15.79;51.85
7157;BME280;3620;49.862;8.758;2023-03-15T11:51:46;99427.97;;;15.85;50.59
7157;BME280;3620;49.862;8.758;2023-03-15T11:54:19;99422.59;;;14.72;52.15
7157;BME280;3620;49.862;8.758;2023-03-15T11:57:34;99429.06;;;14.96;52.75
7157;BME280;3620;49.862;8.758;2023-03-15T12:00:49;99433.69;;;15.65;51.75
7157;BME280;3620;49.862;8.758;2023-03-15T12:03:36;99437.34;;;15.90;49.96
7157;BME280;3620;49.862;8.758;2023-03-15T12:06:46;99440.06;;;16.83;48.81
7157;BME280;3620;49.862;8.758;2023-03-15T12:10:28;99439.47;;;16.39;48.99
7157;BME280;3620;49.862;8.758;2023-03-15T12:13:06;99436.63;;;15.60;51.09
7157;BME280;3620;49.862;8.758;2023-03-15T12:18:54;99444.75;;;15.85;51.67
7157;BME280;3620;49.862;8.758;2023-03-15T12:21:36;99437.88;;;16.09;50.28
7157;BME280;3620;49.862;8.758;2023-03-15T12:24:22;99437.09;;;16.75;49.85
7157;BME280;3620;49.862;8.758;2023-03-15T12:27:00;99448.75;;;16.72;47.99
7157;BME280;3620;49.862;8.758;2023-03-15T12:29:39;99441.41;;;17.53;45.73
7157;BME280;3620;49.862;8.758;2023-03-15T12:32:11;99446.06;;;17.37;46.14
7157;BME280;3620;49.862;8.758;2023-03-15T12:34:55;99453.16;;;18.23;44.35
7157;BME280;3620;49.862;8.758;2023-03-15T12:37:42;99459.25;;;17.13;46.01
7157;BME280;3620;49.862;8.758;2023-03-15T12:43:34;99465.09;;;15.85;48.38
7157;BME280;3620;49.862;8.758;2023-03-15T12:46:01;99458.81;;;16.55;48.75
7157;BME280;3620;49.862;8.758;2023-03-15T12:48:32;99468.97;;;15.23;49.31
7157;BME280;3620;49.862;8.758;2023-03-15T12:51:10;99464.09;;;15.59;48.99
7157;BME280;3620;49.862;8.758;2023-03-15T12:53:48;99467.03;;;14.97;50.89
7157;BME280;3620;49.862;8.758;2023-03-15T12:56:35;99468.66;;;14.69;53.42
7157;BME280;3620;49.862;8.758;2023-03-15T12:59:21;99462.16;;;15.89;51.82
7157;BME280;3620;49.862;8.758;2023-03-15T13:01:50;99456.31;;;15.42;53.63
7157;BME280;3620;49.862;8.758;2023-03-15T13:04:22;99455.16;;;15.32;53.65
7157;BME280;3620;49.862;8.758;2023-03-15T13:06:55;99446.88;;;16.34;50.21
7157;BME280;3620;49.862;8.758;2023-03-15T13:09:40;99448.31;;;16.66;49.35
7157;BME280;3620;49.862;8.758;2023-03-15T13:12:16;99448.06;;;17.21;47.63
7157;BME280;3620;49.862;8.758;2023-03-15T13:14:51;99454.09;;;16.32;48.00
7157;BME280;3620;49.862;8.758;2023-03-15T13:17:29;99455.72;;;16.61;48.67
7157;BME280;3620;49.862;8.758;2023-03-15T13:20:15;99449.25;;;17.17;47.06
7157;BME280;3620;49.862;8.758;2023-03-15T13:22:51;99452.19;;;16.87;47.59
7157;BME280;3620;49.862;8.758;2023-03-15T13:25:25;99444.56;;;17.45;45.32
7157;BME280;3620;49.862;8.758;2023-03-15T13:27:58;99448.09;;;17.08;45.96
7157;BME280;3620;49.862;8.758;2023-03-15T13:30:31;99442.00;;;17.31;46.03
7157;BME280;3620;49.862;8.758;2023-03-15T13:33:07;99443.25;;;16.88;46.31
7157;BME280;3620;49.862;8.758;2023-03-15T13:35:41;99454.47;;;16.40;46.52
7157;BME280;3620;49.862;8.758;2023-03-15T13:38:22;99446.06;;;17.24;45.99
7157;BME280;3620;49.862;8.758;2023-03-15T13:40:49;99449.66;;;17.74;44.57
7157;BME280;3620;49.862;8.758;2023-03-15T13:43:16;99445.38;;;18.56;41.78
7157;BME280;3620;49.862;8.758;2023-03-15T13:45:43;99437.78;;;18.39;41.16
7157;BME280;3620;49.862;8.758;2023-03-15T13:48:10;99440.63;;;18.72;40.31
7157;BME280;3620;49.862;8.758;2023-03-15T13:50:37;99444.56;;;18.90;39.34
7157;BME280;3620;49.862;8.758;2023-03-15T13:53:04;99441.31;;;19.77;38.68
7157;BME280;3620;49.862;8.758;2023-03-15T13:55:34;99435.72;;;18.55;39.06
7157;BME280;3620;49.862;8.758;2023-03-15T13:58:05;99428.28;;;19.28;38.43
7157;BME280;3620;49.862;8.758;2023-03-15T14:00:33;99436.03;;;17.78;40.18
7157;BME280;3620;49.862;8.758;2023-03-15T14:03:03;99441.09;;;18.66;39.00
7157;BME280;3620;49.862;8.758;2023-03-15T14:05:32;99438.81;;;19.30;37.79
7157;BME280;3620;49.862;8.758;2023-03-15T14:08:02;99432.22;;;18.42;38.75
7157;BME280;3620;49.862;8.758;2023-03-15T14:10:32;99439.53;;;18.51;38.31
7157;BME280;3620;49.862;8.758;2023-03-15T14:13:15;99449.25;;;17.80;39.87
7157;BME280;3620;49.862;8.758;2023-03-15T14:15:46;99448.56;;;18.61;39.12
7157;BME280;3620;49.862;8.758;2023-03-15T14:18:15;99440.94;;;17.84;39.23
7157;BME280;3620;49.862;8.758;2023-03-15T14:20:44;99453.75;;;18.03;39.48
7157;BME280;3620;49.862;8.758;2023-03-15T14:23:13;99447.19;;;17.96;39.52
7157;BME280;3620;49.862;8.758;2023-03-15T14:25:43;99457.53;;;17.88;38.67
7157;BME280;3620;49.862;8.758;2023-03-15T14:28:15;99455.75;;;17.25;39.11
7157;BME280;3620;49.862;8.758;2023-03-15T14:30:50;99451.28;;;18.72;37.00
7157;BME280;3620;49.862;8.758;2023-03-15T14:33:29;99452.44;;;19.49;35.39
7157;BME280;3620;49.862;8.758;2023-03-15T14:35:57;99449.78;;;18.21;37.64
7157;BME280;3620;49.862;8.758;2023-03-15T14:38:25;99453.19;;;20.28;34.72
7157;BME280;3620;49.862;8.758;2023-03-15T14:41:10;99442.75;;;19.37;35.92
7157;BME280;3620;49.862;8.758;2023-03-15T14:43:36;99455.38;;;19.35;35.56
7157;BME280;3620;49.862;8.758;2023-03-15T14:46:04;99446.78;;;19.08;37.05
7157;BME280;3620;49.862;8.758;2023-03-15T14:48:31;99453.16;;;19.29;35.89
7157;BME280;3620;49.862;8.758;2023-03-15T14:50:57;99448.22;;;18.42;36.06
7157;BME280;3620;49.862;8.758;2023-03-15T14:53:25;99454.75;;;18.62;36.26
7157;BME280;3620;49.862;8.758;2023-03-15T14:55:55;99465.19;;;20.23;34.44
7157;BME280;3620;49.862;8.758;2023-03-15T14:58:23;99454.63;;;18.27;35.27
7157;BME280;3620;49.862;8.758;2023-03-15T15:00:52;99460.78;;;18.87;34.51
7157;BME280;3620;49.862;8.758;2023-03-15T15:03:21;99464.84;;;19.50;33.53
7157;BME280;3620;49.862;8.758;2023-03-15T15:05:50;99477.69;;;19.89;33.18
7157;BME280;3620;49.862;8.758;2023-03-15T15:08:19;99475.88;;;20.12;32.82
7157;BME280;3620;49.862;8.758;2023-03-15T15:10:47;99472.41;;;19.32;33.60
7157;BME280;3620;49.862;8.758;2023-03-15T15:13:16;99469.22;;;19.84;33.07
7157;BME280;3620;49.862;8.758;2023-03-15T15:15:45;99465.94;;;19.69;33.94
7157;BME280;3620;49.862;8.758;2023-03-15T15:18:11;99477.69;;;20.00;32.54
7157;BME280;3620;49.862;8.758;2023-03-15T15:20:39;99473.13;;;18.41;35.82
7157;BME280;3620;49.862;8.758;2023-03-15T15:23:08;99476.81;;;17.79;35.90
7157;BME280;3620;49.862;8.758;2023-03-15T15:25:34;99482.94;;;18.53;35.08
7157;BME280;3620;49.862;8.758;2023-03-15T15:28:01;99488.19;;;17.81;36.15
7157;BME280;3620;49.862;8.758;2023-03-15T15:30:27;99477.38;;;17.58;36.27
7157;BME280;3620;49.862;8.758;2023-03-15T15:32:56;99482.59;;;18.09;35.93
7157;BME280;3620;49.862;8.758;2023-03-15T15:35:24;99482.03;;;19.00;34.87
7157;BME280;3620;49.862;8.758;2023-03-15T15:37:52;99485.25;;;18.81;34.34
7157;BME280;3620;49.862;8.758;2023-03-15T15:40:21;99485.28;;;18.45;35.14
7157;BME280;3620;49.862;8.758;2023-03-15T15:42:48;99485.19;;;18.10;35.25
7157;BME280;3620;49.862;8.758;2023-03-15T15:45:16;99490.56;;;17.60;35.58
7157;BME280;3620;49.862;8.758;2023-03-15T15:47:43;99500.09;;;18.37;35.17
7157;BME280;3620;49.862;8.758;2023-03-15T15:50:13;99485.66;;;18.64;34.19
7157;BME280;3620;49.862;8.758;2023-03-15T15:52:41;99483.56;;;18.08;34.59
7157;BME280;3620;49.862;8.758;2023-03-15T15:55:13;99497.72;;;19.16;33.62
7157;BME280;3620;49.862;8.758;2023-03-15T15:57:40;99501.47;;;19.48;32.43
7157;BME280;3620;49.862;8.758;2023-03-15T16:00:12;99504.56;;;17.37;33.29
7157;BME280;3620;49.862;8.758;2023-03-15T16:02:39;99504.78;;;17.97;32.14
7157;BME280;3620;49.862;8.758;2023-03-15T16:05:06;99504.91;;;17.32;31.84
7157;BME280;3620;49.862;8.758;2023-03-15T16:07:35;99510.63;;;18.14;31.52
7157;BME280;3620;49.862;8.758;2023-03-15T16:10:02;99503.41;;;18.04;31.97
7157;BME280;3620;49.862;8.758;2023-03-15T16:12:29;99519.66;;;18.12;31.19
7157;BME280;3620;49.862;8.758;2023-03-15T16:14:57;99512.06;;;17.57;31.62
7157;BME280;3620;49.862;8.758;2023-03-15T16:17:23;99517.53;;;18.17;31.86
7157;BME280;3620;49.862;8.758;2023-03-15T16:19:52;99516.34;;;17.60;30.95
7157;BME280;3620;49.862;8.758;2023-03-15T16:22:19;99517.78;;;17.76;30.89
7157;BME280;3620;49.862;8.758;2023-03-15T16:24:49;99509.91;;;18.00;30.93
7157;BME280;3620;49.862;8.758;2023-03-15T16:27:23;99523.22;;;18.36;30.70
7157;BME280;3620;49.862;8.758;2023-03-15T16:29:52;99523.13;;;17.64;31.70
7157;BME280;3620;49.862;8.758;2023-03-15T16:32:21;99515.72;;;17.29;32.13
7157;BME280;3620;49.862;8.758;2023-03-15T16:34:49;99519.88;;;18.09;32.16
7157;BME280;3620;49.862;8.758;2023-03-15T16:37:21;99524.94;;;18.37;31.04
7157;BME280;3620;49.862;8.758;2023-03-15T16:39:49;99524.66;;;18.65;31.53
7157;BME280;3620;49.862;8.758;2023-03-15T16:42:32;99529.66;;;17.20;32.29
7157;BME280;3620;49.862;8.758;2023-03-15T16:45:00;99527.03;;;17.33;32.35
7157;BME280;3620;49.862;8.758;2023-03-15T16:47:27;99529.06;;;16.63;33.44
7157;BME280;3620;49.862;8.758;2023-03-15T16:49:53;99524.75;;;17.14;33.04
7157;BME280;3620;49.862;8.758;2023-03-15T16:52:20;99533.19;;;16.27;34.41
7157;BME280;3620;49.862;8.758;2023-03-15T16:54:46;99530.53;;;16.55;33.52
7157;BME280;3620;49.862;8.758;2023-03-15T16:57:16;99524.25;;;17.22;33.26
7157;BME280;3620;49.862;8.758;2023-03-15T16:59:44;99530.00;;;16.62;33.92
7157;BME280;3620;49.862;8.758;2023-03-15T17:02:14;99546.28;;;16.15;34.71
7157;BME280;3620;49.862;8.758;2023-03-15T17:04:42;99544.59;;;16.14;34.84
7157;BME280;3620;49.862;8.758;2023-03-15T17:07:10;99552.34;;;15.17;36.55
7157;BME280;3620;49.862;8.758;2023-03-15T17:09:38;99546.94;;;16.74;34.14
7157;BME280;3620;49.862;8.758;2023-03-15T17:12:09;99549.28;;;17.05;33.58
7157;BME280;3620;49.862;8.758;2023-03-15T17:14:41;99560.97;;;16.76;33.16
7157;BME280;3620;49.862;8.758;2023-03-15T17:17:08;99560.94;;;17.29;32.80
7157;BME280;3620;49.862;8.758;2023-03-15T17:19:35;99561.69;;;16.92;32.64
7157;BME280;3620;49.862;8.758;2023-03-15T17:22:02;99569.03;;;16.34;33.13
7157;BME280;3620;49.862;8.758;2023-03-15T17:24:29;99570.34;;;16.55;32.39
7157;BME280;3620;49.862;8.758;2023-03-15T17:26:56;99575.16;;;16.62;34.00
7157;BME280;3620;49.862;8.758;2023-03-15T17:29:23;99570.84;;;16.74;33.21
7157;BME280;3620;49.862;8.758;2023-03-15T17:31:51;99570.97;;;15.75;34.15
7157;BME280;3620;49.862;8.758;2023-03-15T17:34:17;99571.59;;;15.65;35.66
7157;BME280;3620;49.862;8.758;2023-03-15T17:36:45;99570.91;;;15.47;35.31
7157;BME280;3620;49.862;8.758;2023-03-15T17:39:14;99578.22;;;14.83;35.77
7157;BME280;3620;49.862;8.758;2023-03-15T17:41:44;99585.19;;;15.15;36.60
7157;BME280;3620;49.862;8.758;2023-03-15T17:44:11;99587.53;;;14.90;37.58
7157;BME280;3620;49.862;8.758;2023-03-15T17:46:37;99585.59;;;15.53;37.45
7157;BME280;3620;49.862;8.758;2023-03-15T17:49:05;99590.03;;;15.22;38.56
7157;BME280;3620;49.862;8.758;2023-03-15T17:51:34;99589.59;;;15.60;38.34
7157;BME280;3620;49.862;8.758;2023-03-15T17:54:09;99598.59;;;14.66;40.18
7157;BME280;3620;49.862;8.758;2023-03-15T17:56:37;99606.44;;;14.52;39.54
7157;BME280;3620;49.862;8.758;2023-03-15T17:59:03;99604.56;;;13.89;41.32
7157;BME280;3620;49.862;8.758;2023-03-15T18:01:30;99608.28;;;13.69;41.95
7157;BME280;3620;49.862;8.758;2023-03-15T18:03:57;99614.44;;;13.36;42.89
7157;BME280;3620;49.862;8.758;2023-03-15T18:06:25;99611.22;;;12.93;44.18
7157;BME280;3620;49.862;8.758;2023-03-15T18:08:51;99602.84;;;12.85;44.72
7157;BME280;3620;49.862;8.758;2023-03-15T18:11:22;99613.09;;;12.91;44.83
7157;BME280;3620;49.862;8.758;2023-03-15T18:13:48;99623.06;;;12.86;45.12
7157;BME280;3620;49.862;8.758;2023-03-15T18:16:16;99613.13;;;13.94;43.06
7157;BME280;3620;49.862;8.758;2023-03-15T18:18:43;99624.53;;;13.79;42.89
7157;BME280;3620;49.862;8.758;2023-03-15T18:21:12;99633.59;;;13.73;42.98
7157;BME280;3620;49.862;8.758;2023-03-15T18:23:40;99625.09;;;14.01;41.53
7157;BME280;3620;49.862;8.758;2023-03-15T18:26:08;99629.13;;;14.41;39.97
7157;BME280;3620;49.862;8.758;2023-03-15T18:28:35;99634.19;;;14.13;40.71
7157;BME280;3620;49.862;8.758;2023-03-15T18:31:02;99630.53;;;13.98;40.47
7157;BME280;3620;49.862;8.758;2023-03-15T18:33:29;99636.97;;;13.77;41.05
7157;BME280;3620;49.862;8.758;2023-03-15T18:35:55;99641.63;;;13.20;41.79
7157;BME280;3620;49.862;8.758;2023-03-15T18:38:22;99643.66;;;13.50;41.26
7157;BME280;3620;49.862;8.758;2023-03-15T18:40:50;99647.22;;;13.83;41.42
7157;BME280;3620;49.862;8.758;2023-03-15T18:43:17;99639.47;;;13.29;42.48
7157;BME280;3620;49.862;8.758;2023-03-15T18:45:44;99640.13;;;12.79;43.83
7157;BME280;3620;49.862;8.758;2023-03-15T18:48:11;99643.47;;;13.18;43.46
7157;BME280;3620;49.862;8.758;2023-03-15T18:50:39;99634.09;;;13.47;42.29
7157;BME280;3620;49.862;8.758;2023-03-15T18:53:06;99638.59;;;13.45;42.47
7157;BME280;3620;49.862;8.758;2023-03-15T18:55:35;99641.16;;;13.47;43.22
7157;BME280;3620;49.862;8.758;2023-03-15T18:58:03;99647.28;;;13.13;43.31
7157;BME280;3620;49.862;8.758;2023-03-15T19:00:33;99641.78;;;13.17;43.26
7157;BME280;3620;49.862;8.758;2023-03-15T19:03:01;99643.06;;;13.09;42.75
7157;BME280;3620;49.862;8.758;2023-03-15T19:05:30;99642.47;;;13.02;43.94
7157;BME280;3620;49.862;8.758;2023-03-15T19:07:57;99641.78;;;13.17;43.08
7157;BME280;3620;49.862;8.758;2023-03-15T19:10:24;99648.63;;;13.03;43.37
7157;BME280;3620;49.862;8.758;2023-03-15T19:12:52;99639.84;;;12.48;44.56
7157;BME280;3620;49.862;8.758;2023-03-15T19:15:21;99641.13;;;12.58;44.30
7157;BME280;3620;49.862;8.758;2023-03-15T19:17:49;99641.81;;;12.06;45.52
7157;BME280;3620;49.862;8.758;2023-03-15T19:20:17;99645.22;;;12.08;45.48
7157;BME280;3620;49.862;8.758;2023-03-15T19:22:46;99644.31;;;12.09;45.30
7157;BME280;3620;49.862;8.758;2023-03-15T19:25:12;99652.31;;;12.26;45.45
7157;BME280;3620;49.862;8.758;2023-03-15T19:27:39;99651.78;;;12.92;43.45
7157;BME280;3620;49.862;8.758;2023-03-15T19:30:07;99657.38;;;12.86;43.93
7157;BME280;3620;49.862;8.758;2023-03-15T19:32:35;99658.50;;;12.25;46.02
7157;BME280;3620;49.862;8.758;2023-03-15T19:35:02;99665.09;;;12.35;46.52
7157;BME280;3620;49.862;8.758;2023-03-15T19:37:28;99671.94;;;12.76;45.13
7157;BME280;3620;49.862;8.758;2023-03-15T19:39:55;99675.53;;;11.57;47.58
7157;BME280;3620;49.862;8.758;2023-03-15T19:42:21;99682.34;;;10.99;48.56
7157;BME280;3620;49.862;8.758;2023-03-15T19:44:48;99683.06;;;10.81;48.61
7157;BME280;3620;49.862;8.758;2023-03-15T19:47:14;99680.84;;;10.71;47.52
7157;BME280;3620;49.862;8.758;2023-03-15T19:49:42;99689.63;;;10.93;47.78
7157;BME280;3620;49.862;8.758;2023-03-15T19:52:09;99691.47;;;10.91;46.52
7157;BME280;3620;49.862;8.758;2023-03-15T19:54:38;99683.31;;;10.97;46.72
7157;BME280;3620;49.862;8.758;2023-03-15T19:57:07;99679.31;;;10.65;46.77
7157;BME280;3620;49.862;8.758;2023-03-15T19:59:34;99694.81;;;11.16;46.17
7157;BME280;3620;49.862;8.758;2023-03-15T20:02:04;99693.81;;;11.40;45.96
7157;BME280;3620;49.862;8.758;2023-03-15T20:04:30;99696.72;;;11.13;46.41
7157;BME280;3620;49.862;8.758;2023-03-15T20:06:58;99701.38;;;11.06;46.76
7157;BME280;3620;49.862;8.758;2023-03-15T20:09:25;99695.16;;;10.64;46.55
7157;BME280;3620;49.862;8.758;2023-03-15T20:11:51;99693.56;;;10.60;47.09
7157;BME280;3620;49.862;8.758;2023-03-15T20:14:18;99696.41;;;10.77;46.69
7157;BME280;3620;49.862;8.758;2023-03-15T20:16:45;99691.59;;;10.65;46.99
7157;BME280;3620;49.862;8.758;2023-03-15T20:19:11;99695.88;;;10.67;46.21
7157;BME280;3620;49.862;8.758;2023-03-15T20:21:38;99699.50;;;10.42;47.51
7157;BME280;3620;49.862;8.758;2023-03-15T20:24:06;99701.56;;;10.57;47.85
7157;BME280;3620;49.862;8.758;2023-03-15T20:26:33;99708.88;;;10.25;47.18
7157;BME280;3620;49.862;8.758;2023-03-15T20:29:00;99697.34;;;10.53;47.03
7157;BME280;3620;49.862;8.758;2023-03-15T20:31:27;99706.38;;;10.46;47.41
7157;BME280;3620;49.862;8.758;2023-03-15T20:33:54;99695.38;;;10.58;46.60
7157;BME280;3620;49.862;8.758;2023-03-15T20:36:20;99698.84;;;11.03;46.06
7157;BME280;3620;49.862;8.758;2023-03-15T20:38:47;99708.16;;;11.12;45.38
7157;BME280;3620;49.862;8.758;2023-03-15T20:41:15;99703.16;;;11.05;45.90
7157;BME280;3620;49.862;8.758;2023-03-15T20:43:43;99710.06;;;11.30;45.62
7157;BME280;3620;49.862;8.758;2023-03-15T20:46:10;99710.09;;;11.92;44.80
7157;BME280;3620;49.862;8.758;2023-03-15T20:48:38;99712.13;;;11.43;44.40
7157;BME280;3620;49.862;8.758;2023-03-15T20:51:05;99704.91;;;10.60;47.96
7157;BME280;3620;49.862;8.758;2023-03-15T20:53:34;99712.31;;;10.51;47.95
7157;BME280;3620;49.862;8.758;2023-03-15T20:56:01;99717.78;;;10.45;49.27
7157;BME280;3620;49.862;8.758;2023-03-15T20:58:30;99720.16;;;10.03;49.64
7157;BME280;3620;49.862;8.758;2023-03-15T21:01:04;99715.06;;;10.48;48.03
7157;BME280;3620;49.862;8.758;2023-03-15T21:03:31;99723.56;;;10.06;49.72
7157;BME280;3620;49.862;8.758;2023-03-15T21:06:00;99720.56;;;9.92;49.89
7157;BME280;3620;49.862;8.758;2023-03-15T21:08:26;99713.34;;;9.48;50.88
7157;BME280;3620;49.862;8.758;2023-03-15T21:10:53;99723.53;;;9.57;51.00
7157;BME280;3620;49.862;8.758;2023-03-15T21:13:20;99725.00;;;9.12;50.76
7157;BME280;3620;49.862;8.758;2023-03-15T21:15:50;99726.13;;;9.83;50.07
7157;BME280;3620;49.862;8.758;2023-03-15T21:18:20;99715.41;;;10.39;49.39
7157;BME280;3620;49.862;8.758;2023-03-15T21:20:54;99727.75;;;10.60;49.47
7157;BME280;3620;49.862;8.758;2023-03-15T21:23:21;99723.44;;;10.80;48.55
7157;BME280;3620;49.862;8.758;2023-03-15T21:25:51;99718.50;;;10.73;48.20
7157;BME280;3620;49.862;8.758;2023-03-15T21:28:18;99723.44;;;10.80;48.65
7157;BME280;3620;49.862;8.758;2023-03-15T21:30:45;99722.91;;;10.94;48.20
7157;BME280;3620;49.862;8.758;2023-03-15T21:33:13;99730.13;;;10.19;49.75
7157;BME280;3620;49.862;8.758;2023-03-15T21:35:39;99722.59;;;11.45;47.60
7157;BME280;3620;49.862;8.758;2023-03-15T21:38:06;99723.88;;;11.98;46.17
7157;BME280;3620;49.862;8.758;2023-03-15T21:40:32;99722.31;;;12.53;45.22
7157;BME280;3620;49.862;8.758;2023-03-15T21:42:59;99724.72;;;11.78;45.83
7157;BME280;3620;49.862;8.758;2023-03-15T21:45:25;99735.72;;;11.68;46.18
7157;BME280;3620;49.862;8.758;2023-03-15T21:47:52;99726.03;;;11.68;46.89
7157;BME280;3620;49.862;8.758;2023-03-15T21:50:19;99738.28;;;11.69;46.17
7157;BME280;3620;49.862;8.758;2023-03-15T21:52:47;99729.31;;;11.73;46.13
7157;BME280;3620;49.862;8.758;2023-03-15T21:55:13;99731.06;;;11.95;45.71
7157;BME280;3620;49.862;8.758;2023-03-15T21:57:40;99735.16;;;12.02;45.18
7157;BME280;3620;49.862;8.758;2023-03-15T22:00:09;99732.84;;;12.53;44.27
7157;BME280;3620;49.862;8.758;2023-03-15T22:02:42;99731.31;;;12.86;43.04
7157;BME280;3620;49.862;8.758;2023-03-15T22:05:10;99729.72;;;12.82;42.50
7157;BME280;3620;49.862;8.758;2023-03-15T22:07:38;99728.34;;;12.74;43.30
7157;BME280;3620;49.862;8.758;2023-03-15T22:10:06;99735.94;;;12.24;44.17
7157;BME280;3620;49.862;8.758;2023-03-15T22:12:34;99720.94;;;13.00;43.31
7157;BME280;3620;49.862;8.758;2023-03-15T22:15:00;99727.28;;;12.96;42.62
7157;BME280;3620;49.862;8.758;2023-03-15T22:17:27;99734.84;;;12.67;43.52
7157;BME280;3620;49.862;8.758;2023-03-15T22:19:54;99725.09;;;12.30;43.94
7157;BME280;3620;49.862;8.758;2023-03-15T22:22:21;99713.84;;;12.45;43.97
7157;BME280;3620;49.862;8.758;2023-03-15T22:24:50;99725.13;;;13.04;43.31
7157;BME280;3620;49.862;8.758;2023-03-15T22:27:17;99713.97;;;12.99;43.07
7157;BME280;3620;49.862;8.758;2023-03-15T22:29:43;99724.03;;;13.29;43.04
7157;BME280;3620;49.862;8.758;2023-03-15T22:32:10;99732.19;;;13.05;42.81
7157;BME280;3620;49.862;8.758;2023-03-15T22:34:36;99717.47;;;13.00;43.50
7157;BME280;3620;49.862;8.758;2023-03-15T22:37:03;99722.75;;;12.81;43.34
7157;BME280;3620;49.862;8.758;2023-03-15T22:39:30;99710.50;;;12.60;43.88
7157;BME280;3620;49.862;8.758;2023-03-15T22:41:59;99714.47;;;12.89;43.12
7157;BME280;3620;49.862;8.758;2023-03-15T22:44:26;99716.31;;;12.68;43.38
7157;BME280;3620;49.862;8.758;2023-03-15T22:46:52;99713.59;;;12.88;42.81
7157;BME280;3620;49.862;8.758;2023-03-15T22:49:19;99715.31;;;12.89;42.71
7157;BME280;3620;49.862;8.758;2023-03-15T22:51:45;99706.75;;;12.84;43.14
7157;BME280;3620;49.862;8.758;2023-03-15T22:54:12;99711.34;;;12.23;44.33
7157;BME280;3620;49.862;8.758;2023-03-15T22:56:38;99710.06;;;12.32;43.87
7157;BME280;3620;49.862;8.758;2023-03-15T22:59:06;99713.50;;;12.71;43.64
7157;BME280;3620;49.862;8.758;2023-03-15T23:01:33;99713.91;;;12.05;44.41
7157;BME280;3620;49.862;8.758;2023-03-15T23:03:59;99706.88;;;12.44;44.03
7157;BME280;3620;49.862;8.758;2023-03-15T23:06:26;99705.06;;;12.26;43.94
7157;BME280;3620;49.862;8.758;2023-03-15T23:08:52;99702.56;;;12.23;43.44
7157;BME280;3620;49.862;8.758;2023-03-15T23:11:19;99712.97;;;12.26;44.28
7157;BME280;3620;49.862;8.758;2023-03-15T23:13:45;99709.41;;;12.07;44.20
7157;BME280;3620;49.862;8.758;2023-03-15T23:16:15;99713.50;;;11.73;45.56
7157;BME280;3620;49.862;8.758;2023-03-15T23:18:43;99714.84;;;11.84;45.57
7157;BME280;3620;49.862;8.758;2023-03-15T23:21:11;99715.22;;;12.15;44.42
7157;BME280;3620;49.862;8.758;2023-03-15T23:23:39;99705.03;;;12.46;44.18
7157;BME280;3620;49.862;8.758;2023-03-15T23:26:06;99715.66;;;12.63;43.73
7157;BME280;3620;49.862;8.758;2023-03-15T23:28:34;99711.00;;;12.31;44.32
7157;BME280;3620;49.862;8.758;2023-03-15T23:31:01;99710.31;;;12.46;44.01
7157;BME280;3620;49.862;8.758;2023-03-15T23:33:29;99719.81;;;12.30;44.13
7157;BME280;3620;49.862;8.758;2023-03-15T23:35:58;99717.56;;;12.41;44.25
7157;BME280;3620;49.862;8.758;2023-03-15T23:38:25;99713.09;;;12.23;44.08
7157;BME280;3620;49.862;8.758;2023-03-15T23:40:55;99713.84;;;12.45;43.91
7157;BME280;3620;49.862;8.758;2023-03-15T23:43:22;99718.94;;;12.11;44.97
7157;BME280;3620;49.862;8.758;2023-03-15T23:45:53;99722.47;;;12.10;45.05
7157;BME280;3620;49.862;8.758;2023-03-15T23:48:20;99721.00;;;12.23;44.70
7157;BME280;3620;49.862;8.758;2023-03-15T23:50:51;99714.25;;;12.17;44.78
7157;BME280;3620;49.862;8.758;2023-03-15T23:53:18;99724.44;;;12.64;43.91
7157;BME280;3620;49.862;8.758;2023-03-15T23:55:45;99729.22;;;12.74;43.65
7157;BME280;3620;49.862;8.758;2023-03-15T23:58:11;99720.69;;;12.49;43.67
